Time;durP1;ratioP1;P1;durP2;ratioP2;P2;SDS_P1;SDS_P2;PMS_P1;PMS_P2;Temp;Humidity;BMP_temperature;BMP_pressure;BME280_temperature;BME280_humidity;BME280_pressure;Samples;Min_cycle;Max_cycle;Signal;HPM_P1;HPM_P2
2023/06/03 00:01:05;;;;;;;4.33;1.93;;;12.80;99.90;;;;;;5095329;28;20051;-75
2023/06/03 00:03:34;;;;;;;3.93;1.50;;;12.70;99.90;;;;;;5061425;28;20799;-75
2023/06/03 00:06:00;;;;;;;4.93;1.63;;;12.70;99.90;;;;;;5098716;28;20134;-75
2023/06/03 00:08:26;;;;;;;5.63;1.73;;;12.70;99.90;;;;;;5099269;28;20681;-75
2023/06/03 00:10:51;;;;;;;5.23;1.60;;;12.70;99.90;;;;;;5116937;28;20126;-75
2023/06/03 00:13:17;;;;;;;3.17;1.40;;;12.70;99.90;;;;;;5099159;28;20043;-75
2023/06/03 00:15:43;;;;;;;4.27;1.90;;;12.70;99.90;;;;;;5116402;28;20056;-75
2023/06/03 00:18:08;;;;;;;4.20;1.33;;;12.70;99.90;;;;;;5117386;28;20092;-75
2023/06/03 00:20:36;;;;;;;5.00;2.17;;;12.60;99.90;;;;;;5117092;28;20443;-75
2023/06/03 00:23:05;;;;;;;3.87;1.53;;;12.70;99.90;;;;;;5116614;28;20127;-75
2023/06/03 00:25:34;;;;;;;3.67;1.50;;;12.70;99.90;;;;;;5116967;28;20282;-75
2023/06/03 00:28:00;;;;;;;5.40;1.80;;;12.60;99.90;;;;;;5098553;28;20289;-75
2023/06/03 00:30:26;;;;;;;5.10;2.17;;;12.60;99.90;;;;;;5117115;28;20280;-75
2023/06/03 00:32:52;;;;;;;5.10;1.43;;;12.60;99.90;;;;;;5098206;28;20044;-75
2023/06/03 00:35:17;;;;;;;5.03;1.57;;;12.60;99.90;;;;;;5116733;28;20096;-75
2023/06/03 00:37:43;;;;;;;4.03;1.43;;;12.50;99.90;;;;;;5098450;28;20467;-75
2023/06/03 00:40:10;;;;;;;4.93;1.70;;;12.50;99.90;;;;;;5098172;28;20050;-75
2023/06/03 00:42:35;;;;;;;5.47;1.67;;;12.50;99.90;;;;;;5098614;28;20550;-75
2023/06/03 00:45:01;;;;;;;4.10;1.30;;;12.50;99.90;;;;;;5097687;28;20400;-75
2023/06/03 00:47:27;;;;;;;4.93;1.67;;;12.40;99.90;;;;;;5098330;28;20126;-75
2023/06/03 00:49:53;;;;;;;5.03;1.53;;;12.40;99.90;;;;;;5098307;28;20424;-75
2023/06/03 00:52:22;;;;;;;4.70;1.80;;;12.40;99.90;;;;;;5098392;28;20277;-75
2023/06/03 00:54:49;;;;;;;3.33;1.50;;;12.40;99.90;;;;;;5116198;28;20046;-75
2023/06/03 00:57:16;;;;;;;3.63;1.30;;;12.40;99.90;;;;;;5098296;28;20292;-75
2023/06/03 00:59:42;;;;;;;3.00;1.23;;;12.40;99.90;;;;;;5098136;28;20828;-75
2023/06/03 01:02:08;;;;;;;3.20;1.60;;;12.40;99.90;;;;;;5098147;28;20290;-75
2023/06/03 01:04:34;;;;;;;4.03;1.30;;;12.30;99.90;;;;;;5116159;28;20320;-75
2023/06/03 01:07:26;;;;;;;4.00;1.50;;;12.30;99.90;;;;;;5097545;28;20147;-75
2023/06/03 01:10:07;;;;;;;4.03;1.60;;;12.30;99.90;;;;;;5115856;28;20374;-75
2023/06/03 01:12:58;;;;;;;3.20;1.40;;;12.30;99.90;;;;;;5097842;28;20293;-75
2023/06/03 01:15:28;;;;;;;3.77;1.53;;;12.30;99.90;;;;;;5115949;28;20277;-75
2023/06/03 01:17:59;;;;;;;4.73;1.40;;;12.30;99.90;;;;;;5080225;28;20285;-75
2023/06/03 01:20:29;;;;;;;5.07;1.40;;;12.30;99.90;;;;;;5080891;28;20799;-75
2023/06/03 01:23:15;;;;;;;4.47;1.63;;;12.20;99.90;;;;;;5115478;28;20281;-75
2023/06/03 01:25:42;;;;;;;4.37;1.37;;;12.20;99.90;;;;;;5115757;28;20293;-75
2023/06/03 01:28:08;;;;;;;5.20;1.17;;;12.20;99.90;;;;;;5115430;28;20334;-75
2023/06/03 01:30:35;;;;;;;4.83;1.60;;;12.20;99.90;;;;;;5080977;28;20044;-75
2023/06/03 01:33:01;;;;;;;3.40;1.20;;;12.20;99.90;;;;;;5097414;28;20313;-75
2023/06/03 01:35:28;;;;;;;3.07;1.30;;;12.20;99.90;;;;;;5115615;28;20753;-75
2023/06/03 01:37:55;;;;;;;2.40;1.30;;;12.20;99.90;;;;;;5115219;28;20289;-75
2023/06/03 01:40:21;;;;;;;4.33;1.10;;;12.20;99.90;;;;;;5115263;28;20765;-75
2023/06/03 01:42:46;;;;;;;3.50;1.40;;;12.20;99.90;;;;;;5115416;28;20321;-75
2023/06/03 01:45:12;;;;;;;4.27;1.47;;;12.20;99.90;;;;;;5115077;28;20301;-75
2023/06/03 01:47:38;;;;;;;3.13;1.33;;;12.20;99.90;;;;;;5115441;28;20036;-75
2023/06/03 01:50:04;;;;;;;3.77;1.33;;;12.10;99.90;;;;;;5096906;28;20785;-75
2023/06/03 01:52:30;;;;;;;4.67;1.40;;;12.20;99.90;;;;;;5115238;28;20138;-75
2023/06/03 01:54:56;;;;;;;3.20;1.10;;;12.20;99.90;;;;;;5114914;28;20453;-75
2023/06/03 01:57:21;;;;;;;3.87;1.20;;;12.20;99.90;;;;;;5115186;28;20043;-75
2023/06/03 01:59:47;;;;;;;4.40;1.20;;;12.20;99.90;;;;;;5115092;28;20039;-75
2023/06/03 02:02:13;;;;;;;2.90;1.33;;;12.20;99.90;;;;;;5096680;28;20050;-75
2023/06/03 02:04:38;;;;;;;2.40;1.27;;;12.10;99.90;;;;;;5096759;28;20044;-75
2023/06/03 02:07:06;;;;;;;3.33;1.37;;;12.10;99.90;;;;;;5096505;28;20054;-76
2023/06/03 02:09:31;;;;;;;4.10;1.37;;;12.10;99.90;;;;;;5114797;28;20140;-75
2023/06/03 02:11:59;;;;;;;2.57;1.17;;;12.10;99.90;;;;;;5114558;28;20323;-76
2023/06/03 02:14:26;;;;;;;3.10;1.30;;;12.00;99.90;;;;;;5114542;28;20507;-75
2023/06/03 02:16:53;;;;;;;4.63;1.30;;;12.00;99.90;;;;;;5114262;28;20830;-76
2023/06/03 02:19:20;;;;;;;2.93;1.10;;;12.00;99.90;;;;;;5096669;28;20380;-75
2023/06/03 02:21:47;;;;;;;3.43;1.30;;;12.00;99.90;;;;;;5114898;28;20369;-75
2023/06/03 02:24:16;;;;;;;4.53;1.40;;;11.90;99.90;;;;;;5095865;28;20308;-76
2023/06/03 02:26:49;;;;;;;3.33;1.30;;;11.90;99.90;;;;;;5114746;28;20292;-75
2023/06/03 02:29:19;;;;;;;5.77;1.23;;;11.80;99.90;;;;;;5114143;28;20279;-76
2023/06/03 02:31:53;;;;;;;4.20;1.20;;;11.80;99.90;;;;;;5096641;28;20385;-75
2023/06/03 02:34:19;;;;;;;7.93;1.40;;;11.70;99.90;;;;;;5114356;28;20364;-75
2023/06/03 02:36:46;;;;;;;3.53;1.27;;;11.70;99.90;;;;;;5096490;28;20636;-75
2023/06/03 02:39:12;;;;;;;2.93;1.40;;;11.70;99.90;;;;;;5114007;28;20277;-75
2023/06/03 02:41:38;;;;;;;3.83;1.60;;;11.60;99.90;;;;;;5096269;28;20368;-75
2023/06/03 02:44:05;;;;;;;2.87;1.40;;;11.60;99.90;;;;;;5095797;28;20305;-75
2023/06/03 02:46:31;;;;;;;5.57;1.40;;;11.60;99.90;;;;;;5114260;28;20828;-75
2023/06/03 02:48:57;;;;;;;6.87;1.67;;;11.60;99.90;;;;;;5096179;28;20663;-75
2023/06/03 02:51:23;;;;;;;3.23;1.33;;;11.50;99.90;;;;;;5114148;28;20291;-75
2023/06/03 02:53:50;;;;;;;5.23;1.57;;;11.50;99.90;;;;;;5113882;28;20823;-75
2023/06/03 02:56:16;;;;;;;3.27;1.40;;;11.50;99.90;;;;;;5095797;28;20062;-75
2023/06/03 02:58:41;;;;;;;4.43;1.40;;;11.50;99.90;;;;;;5114023;28;20277;-74
2023/06/03 03:01:07;;;;;;;2.67;1.47;;;11.50;99.90;;;;;;5095547;28;20047;-75
2023/06/03 03:03:36;;;;;;;4.60;1.60;;;11.50;99.90;;;;;;5113784;28;20039;-75
2023/06/03 03:06:03;;;;;;;4.83;1.97;;;11.50;99.90;;;;;;5113557;28;20051;-75
2023/06/03 03:08:31;;;;;;;2.60;1.10;;;11.50;99.90;;;;;;5114088;28;20339;-75
2023/06/03 03:10:56;;;;;;;5.27;1.50;;;11.50;99.90;;;;;;5113964;28;20349;-75
2023/06/03 03:13:22;;;;;;;4.70;1.43;;;11.50;99.90;;;;;;5113463;28;20415;-75
2023/06/03 03:15:48;;;;;;;4.07;1.23;;;11.50;99.90;;;;;;5113633;28;20321;-75
2023/06/03 03:18:14;;;;;;;3.93;1.53;;;11.40;99.90;;;;;;5095322;28;20043;-75
2023/06/03 03:20:40;;;;;;;2.37;1.23;;;11.40;99.90;;;;;;5096035;28;20050;-75
2023/06/03 03:23:07;;;;;;;4.73;1.40;;;11.40;99.90;;;;;;5113442;28;20749;-75
2023/06/03 03:25:34;;;;;;;4.07;1.43;;;11.30;99.90;;;;;;5078175;28;20061;-75
2023/06/03 03:28:00;;;;;;;3.70;1.40;;;11.30;99.90;;;;;;5062024;28;20293;-76
2023/06/03 03:30:26;;;;;;;3.27;1.37;;;11.30;99.90;;;;;;5113561;28;20342;-75
2023/06/03 03:32:52;;;;;;;3.83;1.43;;;11.30;99.90;;;;;;5113708;28;20464;-75
2023/06/03 03:35:20;;;;;;;4.23;1.50;;;11.20;99.90;;;;;;5113239;28;20040;-75
2023/06/03 03:37:46;;;;;;;3.60;1.40;;;11.20;99.90;;;;;;5113447;28;20044;-75
2023/06/03 03:40:21;;;;;;;4.43;1.40;;;11.20;99.90;;;;;;5112629;28;20273;-75
2023/06/03 03:42:54;;;;;;;6.80;1.40;;;11.20;99.90;;;;;;5095335;28;20759;-75
2023/06/03 03:45:21;;;;;;;2.80;1.20;;;11.10;99.90;;;;;;5113161;28;20044;-75
2023/06/03 03:47:52;;;;;;;3.80;1.33;;;11.10;99.90;;;;;;5113553;28;20368;-75
2023/06/03 03:50:48;;;;;;;2.67;1.20;;;11.10;99.90;;;;;;5113202;28;20372;-75
2023/06/03 03:53:18;;;;;;;1.93;1.20;;;11.10;99.90;;;;;;5095306;28;20289;-75
2023/06/03 03:55:49;;;;;;;4.77;1.30;;;11.10;99.90;;;;;;5095564;28;20290;-75
2023/06/03 03:58:32;;;;;;;3.77;1.20;;;11.10;99.90;;;;;;5113368;28;20292;-76
2023/06/03 04:01:01;;;;;;;2.53;1.13;;;11.10;99.90;;;;;;5078485;28;20321;-75
2023/06/03 04:03:30;;;;;;;4.20;1.47;;;11.10;99.90;;;;;;5112858;28;20338;-75
2023/06/03 04:05:56;;;;;;;3.13;1.30;;;11.10;99.90;;;;;;5113225;28;20273;-75
2023/06/03 04:08:39;;;;;;;4.00;1.30;;;11.00;99.90;;;;;;5113032;28;20365;-76
2023/06/03 04:11:08;;;;;;;7.27;1.57;;;11.10;99.90;;;;;;5095097;28;20306;-76
2023/06/03 04:13:38;;;;;;;5.30;1.70;;;11.10;99.90;;;;;;5095260;28;20693;-75
2023/06/03 04:16:11;;;;;;;3.13;1.30;;;11.10;99.90;;;;;;5113073;28;20330;-75
2023/06/03 04:18:40;;;;;;;3.87;1.43;;;11.10;99.90;;;;;;5095207;28;20645;-75
2023/06/03 04:21:09;;;;;;;6.73;1.77;;;11.10;99.90;;;;;;5112921;28;20270;-76
2023/06/03 04:23:34;;;;;;;4.47;1.37;;;11.20;99.90;;;;;;5112966;28;20297;-75
2023/06/03 04:26:02;;;;;;;3.77;1.30;;;11.20;99.90;;;;;;5056700;28;20352;-75
2023/06/03 04:28:28;;;;;;;4.50;1.70;;;11.30;99.90;;;;;;5070974;28;20098;-75
2023/06/03 04:30:53;;;;;;;2.97;1.30;;;11.30;99.90;;;;;;5072414;28;20286;-75
2023/06/03 04:33:19;;;;;;;3.17;1.30;;;11.40;99.90;;;;;;5072101;28;20044;-75
2023/06/03 04:35:45;;;;;;;4.13;1.47;;;11.40;99.90;;;;;;5072460;28;20128;-75
2023/06/03 04:38:11;;;;;;;4.70;1.30;;;11.50;99.90;;;;;;5072148;28;20536;-75
2023/06/03 04:40:37;;;;;;;3.77;1.30;;;11.50;99.90;;;;;;5071475;28;20173;-75
2023/06/03 04:43:03;;;;;;;4.33;1.60;;;11.60;99.90;;;;;;5071186;28;20829;-75
2023/06/03 04:45:31;;;;;;;6.93;1.57;;;11.70;99.90;;;;;;5072021;28;20058;-76
2023/06/03 04:48:01;;;;;;;7.70;1.57;;;11.80;99.90;;;;;;5055094;28;20344;-75
2023/06/03 04:50:28;;;;;;;3.67;1.40;;;11.90;99.90;;;;;;5054194;28;20635;-75
2023/06/03 04:52:56;;;;;;;3.03;1.33;;;12.00;99.90;;;;;;5074238;28;20325;-75
2023/06/03 04:55:22;;;;;;;3.87;1.30;;;12.10;99.90;;;;;;5057842;28;20282;-75
2023/06/03 04:57:50;;;;;;;3.67;1.50;;;12.20;99.90;;;;;;5075694;28;20287;-75
2023/06/03 05:00:19;;;;;;;3.47;1.50;;;12.30;99.90;;;;;;5074391;28;20326;-75
2023/06/03 05:02:55;;;;;;;5.50;1.50;;;12.40;99.90;;;;;;5075739;28;20352;-75
2023/06/03 05:05:25;;;;;;;4.33;1.60;;;12.50;99.90;;;;;;5074122;28;20303;-76
2023/06/03 05:07:51;;;;;;;4.57;1.80;;;12.50;99.90;;;;;;5074511;28;20335;-76
2023/06/03 05:10:18;;;;;;;4.60;1.20;;;12.60;99.90;;;;;;5075192;28;20369;-76
2023/06/03 05:12:45;;;;;;;4.20;1.40;;;12.60;99.90;;;;;;5075333;28;20044;-75
2023/06/03 05:15:11;;;;;;;3.23;1.23;;;12.60;99.90;;;;;;5074173;28;20283;-75
2023/06/03 05:17:40;;;;;;;4.20;1.50;;;12.70;99.90;;;;;;5074695;28;20287;-75
2023/06/03 05:20:08;;;;;;;3.13;1.40;;;12.80;99.90;;;;;;5074225;28;20301;-75
2023/06/03 05:22:34;;;;;;;4.17;1.20;;;12.90;99.90;;;;;;5074941;28;20743;-75
2023/06/03 05:25:00;;;;;;;4.23;1.57;;;13.10;99.90;;;;;;5093117;28;20311;-75
2023/06/03 05:27:25;;;;;;;6.43;1.50;;;13.20;99.90;;;;;;5097392;28;20285;-75
2023/06/03 05:29:51;;;;;;;6.60;1.67;;;13.40;99.90;;;;;;5097289;28;20067;-76
2023/06/03 05:32:17;;;;;;;3.77;1.50;;;13.50;99.90;;;;;;5097251;28;20065;-76
2023/06/03 05:34:43;;;;;;;4.30;1.50;;;13.60;97.50;;;;;;5097861;28;20036;-75
2023/06/03 05:37:08;;;;;;;4.77;1.73;;;13.70;98.80;;;;;;5115548;28;20395;-76
2023/06/03 05:39:35;;;;;;;3.73;1.70;;;14.00;98.60;;;;;;5114896;28;20140;-76
2023/06/03 05:42:01;;;;;;;4.70;1.60;;;14.20;99.10;;;;;;5064176;28;20047;-75
2023/06/03 05:44:26;;;;;;;6.17;1.80;;;14.40;99.00;;;;;;5115102;28;20300;-76
2023/06/03 05:46:52;;;;;;;4.93;1.60;;;14.70;99.90;;;;;;5097162;28;20087;-76
2023/06/03 05:49:18;;;;;;;5.83;2.07;;;15.50;99.90;;;;;;5115095;28;20059;-76
2023/06/03 05:51:44;;;;;;;4.57;1.70;;;16.80;93.60;;;;;;5115235;28;20040;-76
2023/06/03 05:54:10;;;;;;;11.33;2.00;;;18.10;92.90;;;;;;5114926;28;20285;-75
2023/06/03 05:56:35;;;;;;;3.50;1.70;;;18.70;84.20;;;;;;5114844;28;20047;-76
2023/06/03 05:59:01;;;;;;;4.10;1.83;;;19.50;76.90;;;;;;5096967;28;20048;-76
2023/06/03 06:01:27;;;;;;;3.80;1.50;;;20.00;68.00;;;;;;5114472;28;20495;-76
2023/06/03 06:03:52;;;;;;;4.27;1.70;;;20.60;62.90;;;;;;5096104;28;20044;-74
2023/06/03 06:06:18;;;;;;;3.47;1.67;;;21.30;59.10;;;;;;5080026;28;20043;-74
2023/06/03 06:08:44;;;;;;;5.30;1.80;;;22.00;56.20;;;;;;5114947;28;20143;-74
2023/06/03 06:11:09;;;;;;;5.63;1.83;;;22.60;53.60;;;;;;5114842;28;20484;-74
2023/06/03 06:13:35;;;;;;;3.53;1.70;;;23.00;50.10;;;;;;5114575;28;20101;-74
2023/06/03 06:16:03;;;;;;;4.20;2.00;;;23.90;49.30;;;;;;5114803;28;20093;-73
2023/06/03 06:18:31;;;;;;;3.93;1.97;;;24.50;47.60;;;;;;5096621;28;20051;-75
2023/06/03 06:20:58;;;;;;;4.87;1.70;;;25.00;46.60;;;;;;5096814;28;20487;-75
2023/06/03 06:23:23;;;;;;;4.73;1.80;;;25.20;44.00;;;;;;5114244;28;20129;-76
2023/06/03 06:25:51;;;;;;;3.20;1.47;;;25.30;44.00;;;;;;5114037;28;20060;-75
2023/06/03 06:28:22;;;;;;;3.43;1.87;;;25.90;44.10;;;;;;5096421;28;20047;-75
2023/06/03 06:30:51;;;;;;;3.30;1.83;;;26.30;41.70;;;;;;5096612;28;20051;-75
2023/06/03 06:33:17;;;;;;;4.10;1.50;;;26.50;41.70;;;;;;5113930;28;20407;-75
2023/06/03 06:35:44;;;;;;;2.77;1.50;;;26.70;41.40;;;;;;5114133;28;20044;-75
2023/06/03 06:38:11;;;;;;;4.60;1.73;;;26.70;39.90;;;;;;5114398;28;20046;-75
2023/06/03 06:40:40;;;;;;;4.57;1.53;;;26.50;39.50;;;;;;5114052;28;20046;-75
2023/06/03 06:43:13;;;;;;;5.60;1.50;;;26.80;39.80;;;;;;5096503;28;20240;-75
2023/06/03 06:45:39;;;;;;;3.00;1.57;;;27.10;38.30;;;;;;5114051;28;20088;-75
2023/06/03 06:48:09;;;;;;;4.63;1.77;;;27.40;39.20;;;;;;5114074;28;20134;-75
2023/06/03 06:50:53;;;;;;;4.03;1.27;;;27.60;38.20;;;;;;5095986;28;20156;-75
2023/06/03 06:53:20;;;;;;;2.72;1.50;;;27.90;35.60;;;;;;5114188;28;20046;-75
2023/06/03 06:55:52;;;;;;;5.43;1.73;;;28.30;37.40;;;;;;5095855;28;20050;-75
2023/06/03 06:58:19;;;;;;;3.20;1.40;;;28.50;35.70;;;;;;5114177;28;20122;-75
2023/06/03 07:00:46;;;;;;;3.10;1.37;;;28.80;35.90;;;;;;5113472;28;20051;-76
2023/06/03 07:03:16;;;;;;;2.80;1.30;;;29.00;35.30;;;;;;5113559;28;20506;-75
2023/06/03 07:05:43;;;;;;;2.90;1.30;;;28.80;34.30;;;;;;5113615;28;20168;-75
2023/06/03 07:08:09;;;;;;;6.47;1.40;;;28.90;35.00;;;;;;5113523;28;20039;-72
2023/06/03 07:10:35;;;;;;;3.53;1.70;;;28.80;34.20;;;;;;5078209;28;20046;-70
2023/06/03 07:13:02;;;;;;;3.00;1.20;;;27.50;34.30;;;;;;5095074;28;20039;-73
2023/06/03 07:15:29;;;;;;;4.95;1.85;;;26.10;35.00;;;;;;5077153;28;20376;-74
2023/06/03 07:17:58;;;;;;;2.57;1.30;;;25.00;36.00;;;;;;5113774;28;20095;-75
2023/06/03 07:20:33;;;;;;;3.30;1.50;;;23.90;37.00;;;;;;5113648;28;20088;-75
2023/06/03 07:22:58;;;;;;;;;;;23.00;38.10;;;;;;5114014;28;20039;-75
2023/06/03 07:25:46;;;;;;;3.00;1.50;;;22.10;40.50;;;;;;5129057;27;20051;-76
2023/06/03 07:28:34;;;;;;;7.27;1.47;;;21.60;40.70;;;;;;5113908;28;20043;-77
2023/06/03 07:31:04;;;;;;;3.20;1.47;;;21.00;41.90;;;;;;5094967;28;20480;-77
2023/06/03 07:33:37;;;;;;;6.90;1.93;;;20.50;41.70;;;;;;5113575;28;20051;-77
2023/06/03 07:36:03;;;;;;;4.53;1.40;;;20.20;42.50;;;;;;5113600;28;20066;-75
2023/06/03 07:38:38;;;;;;;4.53;1.30;;;19.90;43.00;;;;;;5078407;28;20126;-77
2023/06/03 07:41:05;;;;;;;2.33;1.20;;;19.80;43.80;;;;;;5113400;28;20052;-76
2023/06/03 07:43:33;;;;;;;4.67;1.50;;;19.60;43.80;;;;;;5078305;28;20498;-76
2023/06/03 07:46:03;;;;;;;6.47;1.60;;;19.40;44.10;;;;;;5113424;28;20098;-76
2023/06/03 07:48:29;;;;;;;4.00;1.40;;;19.30;44.70;;;;;;5113292;28;20043;-75
2023/06/03 07:50:54;;;;;;;3.47;1.30;;;19.40;45.00;;;;;;5095370;28;20057;-75
2023/06/03 07:53:23;;;;;;;4.83;1.40;;;20.00;45.10;;;;;;5113677;28;20043;-76
2023/06/03 07:55:50;;;;;;;4.80;1.67;;;21.00;45.10;;;;;;5095145;28;20052;-76
2023/06/03 07:58:17;;;;;;;3.17;1.50;;;22.20;43.40;;;;;;5078942;28;20058;-75
2023/06/03 08:00:49;;;;;;;5.20;1.47;;;23.40;42.00;;;;;;5061539;28;20051;-75
2023/06/03 08:03:22;;;;;;;3.00;1.03;;;24.50;40.90;;;;;;5113219;28;20055;-76
2023/06/03 08:05:50;;;;;;;3.27;1.50;;;25.60;40.70;;;;;;5095062;28;20082;-75
2023/06/03 08:08:18;;;;;;;4.90;1.37;;;26.80;39.90;;;;;;5095215;28;20094;-76
2023/06/03 08:10:48;;;;;;;4.13;1.47;;;27.40;38.00;;;;;;5095006;28;20498;-78
2023/06/03 08:13:16;;;;;;;5.57;1.80;;;27.70;37.70;;;;;;5113380;28;20122;-79
2023/06/03 08:15:42;;;;;;;3.00;1.30;;;28.00;37.40;;;;;;5078081;28;20043;-78
2023/06/03 08:18:09;;;;;;;3.83;1.50;;;28.30;36.70;;;;;;5095342;28;20506;-76
2023/06/03 08:20:36;;;;;;;3.60;1.47;;;28.20;35.80;;;;;;5092393;28;20040;-75
2023/06/03 08:23:03;;;;;;;2.75;1.50;;;27.90;35.80;;;;;;5108999;28;20043;-75
2023/06/03 08:25:30;;;;;;;4.10;1.48;;;28.10;36.10;;;;;;5112117;28;20071;-75
2023/06/03 08:27:56;;;;;;;3.70;1.63;;;28.00;35.80;;;;;;5117211;27;20051;-75
2023/06/03 08:30:22;;;;;;;4.60;1.83;;;28.10;35.50;;;;;;5114217;28;20039;-76
2023/06/03 08:32:50;;;;;;;3.13;1.42;;;28.00;35.60;;;;;;5119995;27;20044;-77
2023/06/03 08:35:20;;;;;;;4.50;1.90;;;28.10;35.70;;;;;;5096582;28;20047;-76
2023/06/03 08:37:46;;;;;;;3.95;1.30;;;27.90;35.10;;;;;;5114041;27;20040;-73
2023/06/03 08:40:14;;;;;;;2.97;1.40;;;27.60;34.90;;;;;;5095899;28;20497;-75
2023/06/03 08:42:45;;;;;;;2.97;1.30;;;26.90;34.50;;;;;;5119349;27;20055;-75
2023/06/03 08:45:12;;;;;;;2.72;1.33;;;26.30;35.10;;;;;;5115402;28;20046;-76
2023/06/03 08:48:03;;;;;;;3.10;1.30;;;25.80;36.00;;;;;;5113922;28;20052;-76
2023/06/03 08:50:35;;;;;;;3.42;1.60;;;25.30;34.70;;;;;;5095651;28;20051;-76
2023/06/03 08:53:11;;;;;;;2.85;1.20;;;24.60;35.80;;;;;;5101034;28;20127;-76
2023/06/03 08:55:38;;;;;;;3.00;1.40;;;23.90;36.20;;;;;;5115942;28;20044;-76
2023/06/03 08:58:37;;;;;;;2.53;1.40;;;23.50;36.60;;;;;;5098379;27;20043;-76
2023/06/03 09:01:03;;;;;;;3.13;1.20;;;23.10;36.70;;;;;;5114200;27;20051;-76
2023/06/03 09:03:29;;;;;;;3.30;1.37;;;22.60;37.00;;;;;;5113145;28;20077;-74
2023/06/03 09:05:56;;;;;;;2.53;1.03;;;22.30;37.30;;;;;;5115488;28;20613;-75
2023/06/03 09:08:23;;;;;;;2.30;1.13;;;22.10;37.50;;;;;;5116970;27;20043;-75
2023/06/03 09:10:49;;;;;;;1.87;0.90;;;22.00;37.90;;;;;;5117779;27;20043;-74
2023/06/03 09:13:17;;;;;;;2.67;1.20;;;21.90;37.60;;;;;;5121353;27;20052;-75
2023/06/03 09:15:43;;;;;;;2.40;1.07;;;21.70;36.50;;;;;;5115646;28;20468;-74
2023/06/03 09:18:09;;;;;;;2.57;1.40;;;21.40;36.00;;;;;;5115355;27;20071;-75
2023/06/03 09:20:36;;;;;;;3.57;1.40;;;21.20;36.90;;;;;;5097270;28;20044;-77
2023/06/03 09:23:03;;;;;;;3.47;1.20;;;21.10;37.40;;;;;;5094112;28;20039;-75
2023/06/03 09:25:29;;;;;;;2.47;1.37;;;20.90;37.50;;;;;;5096581;28;20062;-75
2023/06/03 09:27:55;;;;;;;3.10;1.20;;;21.00;38.00;;;;;;5114853;28;20566;-74
2023/06/03 09:30:21;;;;;;;3.50;1.30;;;21.00;38.30;;;;;;5096554;28;20073;-77
2023/06/03 09:32:47;;;;;;;2.90;1.00;;;21.10;38.00;;;;;;5112411;28;20078;-76
2023/06/03 09:35:13;;;;;;;3.50;1.37;;;21.20;38.60;;;;;;5112637;28;20071;-74
2023/06/03 09:37:56;;;;;;;1.67;1.07;;;21.20;38.30;;;;;;5114001;28;20406;-75
2023/06/03 09:40:27;;;;;;;2.57;1.27;;;21.10;38.10;;;;;;5115682;28;20450;-75
2023/06/03 09:42:53;;;;;;;4.53;1.10;;;21.10;38.60;;;;;;5114158;28;20039;-75
2023/06/03 09:45:36;;;;;;;2.73;1.20;;;21.00;38.50;;;;;;5115500;28;20356;-74
2023/06/03 09:48:02;;;;;;;2.57;1.30;;;20.90;37.90;;;;;;5115245;28;20043;-75
2023/06/03 09:50:32;;;;;;;3.43;1.33;;;20.80;38.50;;;;;;5115354;28;20048;-75
2023/06/03 09:52:58;;;;;;;3.43;1.43;;;20.70;38.70;;;;;;5080200;28;20399;-75
2023/06/03 09:55:34;;;;;;;3.23;1.40;;;20.60;39.10;;;;;;5115134;28;20503;-75
2023/06/03 09:58:02;;;;;;;4.40;1.30;;;20.50;39.00;;;;;;5096888;28;20514;-71
2023/06/03 10:00:27;;;;;;;2.17;1.20;;;20.50;39.30;;;;;;5115268;28;20043;-72
2023/06/03 10:03:07;;;;;;;2.77;1.20;;;20.60;39.30;;;;;;5131057;27;20053;-75
2023/06/03 10:05:36;;;;;;;2.77;1.00;;;20.50;38.80;;;;;;5111841;28;20188;-76
2023/06/03 10:08:05;;;;;;;1.93;1.27;;;20.50;39.10;;;;;;5114014;28;20364;-75
2023/06/03 10:10:33;;;;;;;4.67;1.27;;;20.50;39.70;;;;;;5119362;27;20423;-73
2023/06/03 10:13:18;;;;;;;3.20;1.30;;;20.50;39.70;;;;;;5092576;28;20048;-74
2023/06/03 10:15:44;;;;;;;3.90;1.50;;;20.40;40.30;;;;;;5081470;28;20173;-74
2023/06/03 10:18:10;;;;;;;3.73;1.37;;;20.40;40.10;;;;;;5098067;28;20047;-73
2023/06/03 10:20:39;;;;;;;3.50;1.40;;;20.30;40.10;;;;;;5113083;28;20044;-73
2023/06/03 10:23:07;;;;;;;2.37;1.20;;;20.30;40.30;;;;;;5094924;28;20063;-73
2023/06/03 10:25:54;;;;;;;6.50;1.30;;;20.30;40.60;;;;;;5113939;28;20055;-72
2023/06/03 10:28:20;;;;;;;4.83;1.40;;;20.30;40.90;;;;;;5112127;28;20484;-73
2023/06/03 10:30:47;;;;;;;4.50;1.30;;;20.40;40.90;;;;;;5113874;28;20487;-73
2023/06/03 10:33:13;;;;;;;3.27;1.20;;;20.50;41.20;;;;;;5096602;28;20126;-73
2023/06/03 10:35:39;;;;;;;4.60;1.40;;;20.50;41.00;;;;;;5114473;28;20048;-73
2023/06/03 10:38:08;;;;;;;4.93;1.50;;;20.50;40.20;;;;;;5130194;27;20047;-73
2023/06/03 10:40:34;;;;;;;3.23;1.47;;;20.30;40.60;;;;;;5114359;28;20043;-73
2023/06/03 10:43:00;;;;;;;3.93;1.60;;;20.30;40.50;;;;;;5079242;28;20104;-74
2023/06/03 10:45:27;;;;;;;5.30;1.30;;;20.30;40.30;;;;;;5114194;28;20043;-73
2023/06/03 10:48:02;;;;;;;2.63;1.30;;;20.20;39.80;;;;;;5129779;27;20097;-73
2023/06/03 10:50:36;;;;;;;5.05;1.20;;;20.20;39.90;;;;;;5114182;28;20130;-73
2023/06/03 10:53:40;;;;;;;1.70;1.20;;;20.00;40.40;;;;;;5130221;27;20393;-75
2023/06/03 10:56:14;;;;;;;2.33;1.30;;;20.10;40.60;;;;;;5095319;28;20443;-70
2023/06/03 10:58:43;;;;;;;1.92;1.30;;;20.10;40.90;;;;;;5114109;28;20040;-70
2023/06/03 11:01:09;;;;;;;2.77;1.37;;;20.20;41.20;;;;;;5113729;28;20043;-70
2023/06/03 11:03:53;;;;;;;2.93;1.43;;;20.20;40.60;;;;;;5113909;28;20602;-70
2023/06/03 11:06:18;;;;;;;2.57;1.40;;;20.20;39.80;;;;;;5114009;28;20048;-75
2023/06/03 11:09:05;;;;;;;2.20;1.20;;;20.20;40.00;;;;;;5113886;28;20047;-74
2023/06/03 11:11:44;;;;;;;3.80;1.23;;;20.20;40.60;;;;;;5096334;28;20047;-73
2023/06/03 11:14:29;;;;;;;4.17;1.20;;;20.20;40.50;;;;;;5113515;28;20050;-74
2023/06/03 11:16:58;;;;;;;5.40;1.50;;;20.10;40.50;;;;;;5112673;28;20171;-74
2023/06/03 11:19:27;;;;;;;2.90;1.10;;;20.10;41.30;;;;;;5130033;27;20043;-75
2023/06/03 11:21:53;;;;;;;3.57;1.60;;;20.10;41.60;;;;;;5113662;28;20054;-73
2023/06/03 11:24:37;;;;;;;6.43;1.20;;;20.20;41.20;;;;;;5113603;28;20032;-78
2023/06/03 11:27:15;;;;;;;2.08;1.02;;;20.20;40.40;;;;;;5094986;28;20403;-72
2023/06/03 11:29:43;;;;;;;1.57;1.10;;;20.20;41.00;;;;;;5113234;28;20122;-71
2023/06/03 11:32:19;;;;;;;4.00;1.20;;;20.20;41.20;;;;;;5109867;28;20075;-70
2023/06/03 11:34:47;;;;;;;2.80;1.20;;;20.20;40.90;;;;;;5112276;28;20086;-71
2023/06/03 11:37:15;;;;;;;3.13;1.60;;;20.30;41.50;;;;;;5110792;28;20546;-71
2023/06/03 11:40:07;;;;;;;4.87;1.30;;;20.30;40.90;;;;;;5112456;28;20097;-72
2023/06/03 11:42:47;;;;;;;3.23;1.40;;;20.30;41.30;;;;;;5097825;28;20052;-73
2023/06/03 11:45:27;;;;;;;2.67;1.23;;;20.30;41.40;;;;;;5057250;28;20055;-72
2023/06/03 11:47:53;;;;;;;2.10;1.20;;;20.20;41.30;;;;;;5076904;28;20091;-71
2023/06/03 11:50:20;;;;;;;3.83;1.43;;;20.20;40.40;;;;;;5093276;28;20047;-71
2023/06/03 11:52:46;;;;;;;6.43;1.53;;;20.30;40.70;;;;;;5104964;28;20044;-70
2023/06/03 11:55:22;;;;;;;4.27;1.30;;;20.20;41.00;;;;;;5112807;28;20051;-70
2023/06/03 11:57:49;;;;;;;2.30;1.20;;;20.20;40.30;;;;;;5113321;28;20048;-75
2023/06/03 12:00:17;;;;;;;3.83;1.30;;;20.20;40.90;;;;;;5078863;28;20105;-72
2023/06/03 12:02:46;;;;;;;2.80;1.30;;;20.20;40.80;;;;;;5117477;28;20086;-71
2023/06/03 12:05:15;;;;;;;1.73;1.10;;;20.20;40.30;;;;;;5117075;28;20055;-72
2023/06/03 12:07:52;;;;;;;3.10;1.23;;;20.10;40.70;;;;;;5117337;28;20108;-71
2023/06/03 12:10:18;;;;;;;2.83;1.40;;;20.10;41.20;;;;;;5117064;28;20097;-72
2023/06/03 12:12:51;;;;;;;4.13;1.53;;;20.10;41.60;;;;;;5117249;28;20055;-72
2023/06/03 12:15:17;;;;;;;3.40;1.30;;;20.10;41.50;;;;;;5116249;28;20039;-72
2023/06/03 12:17:43;;;;;;;3.37;1.23;;;20.10;41.30;;;;;;5081700;28;20104;-74
2023/06/03 12:20:09;;;;;;;2.67;1.30;;;20.10;41.40;;;;;;5116146;28;20035;-72
2023/06/03 12:22:35;;;;;;;3.93;1.80;;;20.00;41.30;;;;;;5116637;28;20048;-72
2023/06/03 12:25:01;;;;;;;2.93;1.20;;;20.10;41.60;;;;;;5064236;28;20074;-72
2023/06/03 12:27:27;;;;;;;4.33;1.40;;;20.20;41.60;;;;;;5116704;28;20123;-72
2023/06/03 12:30:02;;;;;;;4.30;1.27;;;20.20;41.60;;;;;;5116437;28;20510;-73
2023/06/03 12:32:29;;;;;;;;;;;20.30;41.60;;;;;;5117360;28;20043;-72
2023/06/03 12:34:55;;;;;;;4.50;1.40;;;20.30;41.70;;;;;;5116821;28;19963;-73
2023/06/03 12:37:29;;;;;;;3.77;1.40;;;20.30;41.90;;;;;;5116186;28;20570;-73
2023/06/03 12:39:57;;;;;;;4.45;1.50;;;20.40;41.30;;;;;;5116566;28;20566;-73
2023/06/03 12:42:42;;;;;;;3.27;1.50;;;20.20;41.50;;;;;;5081537;28;20471;-72
2023/06/03 12:45:09;;;;;;;3.63;1.60;;;20.10;41.80;;;;;;5116428;28;20036;-72
2023/06/03 12:47:46;;;;;;;2.87;1.60;;;20.00;42.10;;;;;;5098518;28;20055;-73
2023/06/03 12:50:13;;;;;;;2.50;1.23;;;20.10;42.40;;;;;;5098198;28;20140;-73
2023/06/03 12:52:39;;;;;;;5.53;1.57;;;20.00;41.90;;;;;;5116445;28;20048;-73
2023/06/03 12:55:07;;;;;;;4.20;1.20;;;20.20;42.00;;;;;;5115872;28;20097;-71
2023/06/03 12:57:33;;;;;;;2.60;1.17;;;20.20;42.00;;;;;;5116164;28;20494;-72